createdAt,value
2022-11-20T00:01:38.068Z,-4.68
2022-11-20T00:04:06.547Z,-4.71
2022-11-20T00:06:35.034Z,-4.78
2022-11-20T00:09:03.641Z,-4.83
2022-11-20T00:11:33.152Z,-4.85
2022-11-20T00:14:03.491Z,-4.88
2022-11-20T00:16:33.607Z,-4.90
2022-11-20T00:19:02.348Z,-4.89
2022-11-20T00:21:31.595Z,-4.89
2022-11-20T00:24:00.509Z,-4.88
2022-11-20T00:26:29.646Z,-4.87
2022-11-20T00:29:01.771Z,-4.88
2022-11-20T00:31:31.805Z,-4.88
2022-11-20T00:34:00.236Z,-4.88
2022-11-20T00:36:30.298Z,-4.87
2022-11-20T00:38:59.827Z,-4.84
2022-11-20T00:41:30.121Z,-4.85
2022-11-20T00:43:58.974Z,-4.85
2022-11-20T00:46:28.878Z,-4.86
2022-11-20T00:48:57.261Z,-4.90
2022-11-20T00:51:27.523Z,-4.91
2022-11-20T00:53:58.254Z,-4.92
2022-11-20T00:56:26.999Z,-4.94
2022-11-20T00:58:55.453Z,-4.96
2022-11-20T01:01:27.193Z,-4.97
2022-11-20T01:03:58.121Z,-4.97
2022-11-20T01:06:32.991Z,-5.00
2022-11-20T01:09:05.399Z,-5.01
2022-11-20T01:11:37.385Z,-5.02
2022-11-20T01:14:08.328Z,-5.06
2022-11-20T01:16:39.606Z,-5.08
2022-11-20T01:19:18.002Z,-5.11
2022-11-20T01:21:50.387Z,-5.11
2022-11-20T01:24:21.214Z,-5.09
2022-11-20T01:26:52.068Z,-5.07
2022-11-20T01:29:23.909Z,-5.06
2022-11-20T01:31:53.700Z,-5.07
2022-11-20T01:34:23.496Z,-5.10
2022-11-20T01:36:53.763Z,-5.10
2022-11-20T01:39:25.049Z,-5.09
2022-11-20T01:42:15.175Z,-5.09
2022-11-20T01:44:53.894Z,-5.11
2022-11-20T01:47:29.121Z,-5.11
2022-11-20T01:50:25.358Z,-5.09
2022-11-20T01:53:00.285Z,-5.11
2022-11-20T01:55:38.167Z,-5.12
2022-11-20T01:58:09.840Z,-5.13
2022-11-20T02:00:38.219Z,-5.15
2022-11-20T02:03:13.787Z,-5.14
2022-11-20T02:05:55.696Z,-5.10
2022-11-20T02:08:25.131Z,-5.13
2022-11-20T02:10:56.603Z,-5.14
2022-11-20T02:13:43.680Z,-5.16
2022-11-20T02:16:34.827Z,-5.19
2022-11-20T02:19:05.477Z,-5.23
2022-11-20T02:21:37.199Z,-5.25
2022-11-20T02:24:25.948Z,-5.27
2022-11-20T02:27:00.460Z,-5.31
2022-11-20T02:29:38.421Z,-5.34
2022-11-20T02:32:06.925Z,-5.39
2022-11-20T02:34:35.256Z,-5.40
2022-11-20T02:37:03.659Z,-5.39
2022-11-20T02:39:32.058Z,-5.40
2022-11-20T02:42:02.144Z,-5.44
2022-11-20T02:44:30.478Z,-5.46
2022-11-20T02:47:00.187Z,-5.48
2022-11-20T02:49:28.548Z,-5.47
2022-11-20T02:51:56.847Z,-5.45
2022-11-20T02:54:26.022Z,-5.47
2022-11-20T02:56:54.496Z,-5.48
2022-11-20T02:59:23.238Z,-5.49
2022-11-20T03:01:51.916Z,-5.53
2022-11-20T03:04:20.941Z,-5.56
2022-11-20T03:06:49.308Z,-5.59
2022-11-20T03:09:17.789Z,-5.60
2022-11-20T03:11:46.388Z,-5.61
2022-11-20T03:14:15.260Z,-5.65
2022-11-20T03:16:43.672Z,-5.68
2022-11-20T03:19:13.254Z,-5.69
2022-11-20T03:21:41.633Z,-5.72
2022-11-20T03:24:10.077Z,-5.75
2022-11-20T03:26:40.207Z,-5.77
2022-11-20T03:29:08.616Z,-5.77
2022-11-20T03:31:41.374Z,-5.80
2022-11-20T03:34:11.809Z,-5.82
2022-11-20T03:36:41.767Z,-5.81
2022-11-20T03:39:10.916Z,-5.80
2022-11-20T03:41:41.142Z,-5.81
2022-11-20T03:44:11.669Z,-5.83
2022-11-20T03:46:40.099Z,-5.88
2022-11-20T03:49:08.606Z,-5.89
2022-11-20T03:51:37.204Z,-5.93
2022-11-20T03:54:08.149Z,-5.95
2022-11-20T03:56:38.850Z,-5.98
2022-11-20T03:59:07.936Z,-5.99
2022-11-20T04:01:38.646Z,-6.00
2022-11-20T04:04:07.198Z,-6.03
2022-11-20T04:06:38.064Z,-6.06
2022-11-20T04:09:07.353Z,-6.07
2022-11-20T04:11:38.246Z,-6.11
2022-11-20T04:14:13.544Z,-6.12
2022-11-20T04:16:42.232Z,-6.16
2022-11-20T04:19:12.950Z,-6.19
2022-11-20T04:21:41.868Z,-6.23
2022-11-20T04:24:11.543Z,-6.27
2022-11-20T04:26:40.924Z,-6.30
2022-11-20T04:29:12.453Z,-6.32
2022-11-20T04:31:41.060Z,-6.32
2022-11-20T04:34:12.799Z,-6.34
2022-11-20T04:36:41.191Z,-6.35
2022-11-20T04:39:15.231Z,-6.36
2022-11-20T04:41:43.951Z,-6.35
2022-11-20T04:44:12.601Z,-6.37
2022-11-20T04:46:42.967Z,-6.41
2022-11-20T04:49:12.931Z,-6.43
2022-11-20T04:51:41.343Z,-6.45
2022-11-20T04:54:10.443Z,-6.49
2022-11-20T04:56:38.906Z,-6.50
2022-11-20T04:59:07.239Z,-6.51
2022-11-20T05:01:35.861Z,-6.52
2022-11-20T05:04:04.431Z,-6.49
2022-11-20T05:06:33.271Z,-6.47
2022-11-20T05:09:02.054Z,-6.44
2022-11-20T05:11:30.446Z,-6.44
2022-11-20T05:14:00.213Z,-6.42
2022-11-20T05:16:28.566Z,-6.40
2022-11-20T05:18:57.235Z,-6.41
2022-11-20T05:21:25.533Z,-6.40
2022-11-20T05:23:53.826Z,-6.39
2022-11-20T05:26:22.906Z,-6.36
2022-11-20T05:28:52.506Z,-6.35
2022-11-20T05:31:27.185Z,-6.33
2022-11-20T05:33:57.832Z,-6.31
2022-11-20T05:36:26.444Z,-6.28
2022-11-20T05:39:01.012Z,-6.26
2022-11-20T05:41:30.771Z,-6.22
2022-11-20T05:43:59.779Z,-6.22
2022-11-20T05:46:29.512Z,-6.24
2022-11-20T05:48:59.400Z,-6.25
2022-11-20T05:51:28.334Z,-6.26
2022-11-20T05:53:59.844Z,-6.28
2022-11-20T05:56:28.540Z,-6.28
2022-11-20T05:58:57.473Z,-6.27
2022-11-20T06:01:29.760Z,-6.26
2022-11-20T06:03:58.141Z,-6.25
2022-11-20T06:06:27.067Z,-6.22
2022-11-20T06:08:56.631Z,-6.19
2022-11-20T06:11:25.053Z,-6.17
2022-11-20T06:13:53.368Z,-6.15
2022-11-20T06:16:22.848Z,-6.14
2022-11-20T06:18:51.265Z,-6.13
2022-11-20T06:21:21.982Z,-6.13
2022-11-20T06:23:51.647Z,-6.13
2022-11-20T06:26:23.254Z,-6.14
2022-11-20T06:28:52.735Z,-6.16
2022-11-20T06:31:24.151Z,-6.15
2022-11-20T06:33:53.149Z,-6.11
2022-11-20T06:36:23.567Z,-6.07
2022-11-20T06:38:52.120Z,-6.01
2022-11-20T06:41:22.577Z,-5.95
2022-11-20T06:43:51.333Z,-5.88
2022-11-20T06:46:21.056Z,-5.82
2022-11-20T06:48:50.766Z,-5.77
2022-11-20T06:51:19.424Z,-5.70
2022-11-20T06:53:48.125Z,-5.63
2022-11-20T06:56:16.823Z,-5.55
2022-11-20T06:58:45.253Z,-5.49
2022-11-20T07:01:15.446Z,-5.41
2022-11-20T07:03:54.584Z,-5.33
2022-11-20T07:06:24.039Z,-5.24
2022-11-20T07:08:53.807Z,-5.12
2022-11-20T07:11:24.017Z,-5.01
2022-11-20T07:13:52.723Z,-4.90
2022-11-20T07:16:21.143Z,-4.81
2022-11-20T07:18:52.571Z,-4.70
2022-11-20T07:21:21.135Z,-4.60
2022-11-20T07:23:49.533Z,-4.52
2022-11-20T07:26:17.946Z,-4.43
2022-11-20T07:28:46.891Z,-4.36
2022-11-20T07:31:19.095Z,-4.32
2022-11-20T07:33:48.179Z,-4.29
2022-11-20T07:36:18.847Z,-4.25
2022-11-20T07:38:47.262Z,-4.21
2022-11-20T07:41:16.157Z,-4.18
2022-11-20T07:43:44.616Z,-4.15
2022-11-20T07:46:12.932Z,-4.09
2022-11-20T07:48:41.357Z,-4.01
2022-11-20T07:51:09.749Z,-3.91
2022-11-20T07:53:38.145Z,-3.84
2022-11-20T07:56:07.367Z,-3.76
2022-11-20T07:58:36.959Z,-3.69
2022-11-20T08:01:08.712Z,-3.63
2022-11-20T08:03:38.756Z,-3.59
2022-11-20T08:06:07.740Z,-3.57
2022-11-20T08:08:40.039Z,-3.57
2022-11-20T08:11:29.612Z,-3.49
2022-11-20T08:14:12.977Z,-3.39
2022-11-20T08:16:45.608Z,-3.30
2022-11-20T08:19:15.228Z,-3.20
2022-11-20T08:21:44.231Z,-3.11
2022-11-20T08:24:13.398Z,-3.05
2022-11-20T08:26:42.233Z,-2.96
2022-11-20T08:29:10.667Z,-2.87
2022-11-20T08:31:39.313Z,-2.77
2022-11-20T08:34:27.631Z,-2.69
2022-11-20T08:36:56.060Z,-2.59
2022-11-20T08:39:24.615Z,-2.49
2022-11-20T08:41:53.306Z,-2.41
2022-11-20T08:44:21.784Z,-2.34
2022-11-20T08:46:50.205Z,-2.28
2022-11-20T08:49:19.221Z,-2.23
2022-11-20T08:51:52.690Z,-2.18
2022-11-20T08:54:22.917Z,-2.14
2022-11-20T08:56:51.333Z,-2.11
2022-11-20T08:59:37.261Z,-2.08
2022-11-20T09:02:08.911Z,-2.02
2022-11-20T09:04:37.204Z,-1.98
2022-11-20T09:07:06.078Z,-1.95
2022-11-20T09:09:34.601Z,-1.91
2022-11-20T09:12:03.061Z,-1.87
2022-11-20T09:14:31.392Z,-1.78
2022-11-20T09:16:59.780Z,-1.71
2022-11-20T09:19:35.502Z,-1.64
2022-11-20T09:22:10.011Z,-1.56
2022-11-20T09:24:38.488Z,-1.48
2022-11-20T09:27:06.902Z,-1.46
2022-11-20T09:29:35.313Z,-1.43
2022-11-20T09:32:03.820Z,-1.39
2022-11-20T09:34:32.471Z,-1.37
2022-11-20T09:37:03.166Z,-1.30
2022-11-20T09:39:35.560Z,-1.21
2022-11-20T09:42:15.831Z,-1.15
2022-11-20T09:45:21.443Z,-1.09
2022-11-20T09:48:10.203Z,-1.04
2022-11-20T09:50:53.055Z,-1.04
2022-11-20T09:53:45.983Z,-0.97
2022-11-20T09:56:18.424Z,-0.89
2022-11-20T09:58:58.884Z,-0.80
2022-11-20T10:01:37.681Z,-0.72
2022-11-20T10:04:21.736Z,-0.65
2022-11-20T10:07:30.963Z,-0.59
2022-11-20T10:09:55.432Z,-0.53
2022-11-20T10:12:29.942Z,-0.52
2022-11-20T10:15:37.835Z,-0.52
2022-11-20T10:18:56.707Z,-0.53
2022-11-20T10:21:57.985Z,-0.50
2022-11-20T10:24:47.783Z,-0.44
2022-11-20T10:27:50.416Z,-0.36
2022-11-20T10:30:23.001Z,-0.27
2022-11-20T10:32:58.976Z,-0.26
2022-11-20T10:35:27.379Z,-0.31
2022-11-20T10:38:06.497Z,-0.34
2022-11-20T10:40:41.097Z,-0.32
2022-11-20T10:43:33.171Z,-0.34
2022-11-20T10:46:06.390Z,-0.43
2022-11-20T10:48:35.683Z,-0.45
2022-11-20T10:51:35.754Z,-0.44
2022-11-20T10:54:04.510Z,-0.49
2022-11-20T10:56:50.171Z,-0.44
2022-11-20T10:59:40.227Z,-0.38
2022-11-20T11:02:35.426Z,-0.34
2022-11-20T11:05:14.687Z,-0.28
2022-11-20T11:07:43.476Z,-0.25
2022-11-20T11:10:22.427Z,-0.21
2022-11-20T11:12:50.850Z,-0.24
2022-11-20T11:15:39.624Z,-0.32
2022-11-20T11:18:12.390Z,-0.24
2022-11-20T11:20:52.042Z,-0.14
2022-11-20T11:23:32.450Z,-0.08
2022-11-20T11:26:02.723Z,-0.03
2022-11-20T11:28:31.469Z,-0.02
2022-11-20T11:30:59.956Z,-0.05
2022-11-20T11:33:30.903Z,-0.01
2022-11-20T11:36:21.078Z,0.03
2022-11-20T11:38:53.967Z,0.07
2022-11-20T11:41:29.274Z,0.11
2022-11-20T11:44:17.604Z,0.14
2022-11-20T11:46:56.620Z,0.14
2022-11-20T11:49:30.727Z,0.14
2022-11-20T11:52:09.864Z,0.13
2022-11-20T11:54:54.375Z,0.15
2022-11-20T11:57:43.226Z,0.09
2022-11-20T12:00:16.481Z,0.13
2022-11-20T12:02:49.377Z,0.17
2022-11-20T12:05:25.601Z,0.20
2022-11-20T12:08:41.586Z,0.25
2022-11-20T12:11:38.826Z,0.37
2022-11-20T12:14:38.637Z,0.39
2022-11-20T12:17:15.462Z,0.35
2022-11-20T12:19:43.780Z,0.33
2022-11-20T12:22:35.003Z,0.41
2022-11-20T12:25:16.735Z,0.49
2022-11-20T12:28:03.812Z,0.52
2022-11-20T12:30:39.394Z,0.56
2022-11-20T12:33:07.796Z,0.57
2022-11-20T12:35:55.073Z,0.59
2022-11-20T12:39:12.635Z,0.65
2022-11-20T12:42:42.952Z,0.73
2022-11-20T12:45:23.407Z,0.80
2022-11-20T12:48:19.570Z,0.77
2022-11-20T12:51:15.095Z,0.73
2022-11-20T12:54:22.317Z,0.71
2022-11-20T12:57:16.480Z,0.68
2022-11-20T12:59:59.674Z,0.69
2022-11-20T13:02:40.367Z,0.64
2022-11-20T13:05:25.414Z,0.63
2022-11-20T13:07:54.843Z,0.64
2022-11-20T13:10:35.142Z,0.63
2022-11-20T13:13:34.704Z,0.64
2022-11-20T13:16:15.433Z,0.67
2022-11-20T13:18:46.304Z,0.68
2022-11-20T13:21:21.434Z,0.68
2022-11-20T13:23:51.680Z,0.65
2022-11-20T13:26:23.331Z,0.65
2022-11-20T13:29:09.768Z,0.63
2022-11-20T13:31:44.280Z,0.60
2022-11-20T13:34:27.020Z,0.57
2022-11-20T13:36:58.536Z,0.52
2022-11-20T13:39:37.763Z,0.48
2022-11-20T13:42:12.178Z,0.46
2022-11-20T13:44:45.660Z,0.46
2022-11-20T13:47:23.220Z,0.47
2022-11-20T13:49:57.910Z,0.43
2022-11-20T13:52:53.892Z,0.41
2022-11-20T13:55:43.908Z,0.39
2022-11-20T13:58:24.087Z,0.34
2022-11-20T14:01:17.871Z,0.27
2022-11-20T14:06:43.151Z,0.26
2022-11-20T14:09:32.727Z,0.27
2022-11-20T14:12:03.312Z,0.26
2022-11-20T14:14:34.282Z,0.25
2022-11-20T14:17:18.320Z,0.22
2022-11-20T14:19:49.045Z,0.17
2022-11-20T14:22:23.183Z,0.12
2022-11-20T14:25:08.285Z,0.06
2022-11-20T14:27:53.248Z,-0.03
2022-11-20T14:30:27.110Z,-0.11
2022-11-20T14:32:59.019Z,-0.17
2022-11-20T14:35:28.716Z,-0.24
2022-11-20T14:37:58.323Z,-0.30
2022-11-20T14:40:28.714Z,-0.39
2022-11-20T14:42:59.039Z,-0.47
2022-11-20T14:45:28.294Z,-0.55
2022-11-20T14:47:59.137Z,-0.58
2022-11-20T14:50:29.845Z,-0.60
2022-11-20T14:53:01.340Z,-0.63
2022-11-20T14:55:32.987Z,-0.64
2022-11-20T14:58:05.304Z,-0.66
2022-11-20T15:00:38.177Z,-0.69
2022-11-20T15:03:16.995Z,-0.76
2022-11-20T15:05:49.251Z,-0.84
2022-11-20T15:08:18.361Z,-0.88
2022-11-20T15:10:52.067Z,-0.91
2022-11-20T15:13:40.427Z,-0.94
2022-11-20T15:16:22.091Z,-0.98
2022-11-20T15:18:51.018Z,-1.03
2022-11-20T15:21:24.156Z,-1.10
2022-11-20T15:23:52.590Z,-1.18
2022-11-20T15:26:27.311Z,-1.24
2022-11-20T15:28:56.052Z,-1.28
2022-11-20T15:31:25.043Z,-1.32
2022-11-20T15:33:53.501Z,-1.38
2022-11-20T15:36:21.885Z,-1.46
2022-11-20T15:38:50.359Z,-1.51
2022-11-20T15:41:18.727Z,-1.54
2022-11-20T15:43:47.621Z,-1.59
2022-11-20T15:46:22.725Z,-1.64
2022-11-20T15:48:57.795Z,-1.70
2022-11-20T15:51:28.074Z,-1.76
2022-11-20T15:53:57.299Z,-1.80
2022-11-20T15:56:28.609Z,-1.86
2022-11-20T15:58:57.109Z,-1.95
2022-11-20T16:01:28.363Z,-2.00
2022-11-20T16:03:56.827Z,-2.04
2022-11-20T16:06:25.258Z,-2.08
2022-11-20T16:08:54.223Z,-2.12
2022-11-20T16:11:24.010Z,-2.18
2022-11-20T16:14:28.113Z,-2.23
2022-11-20T16:16:56.524Z,-2.27
2022-11-20T16:19:24.869Z,-2.31
2022-11-20T16:21:54.373Z,-2.36
2022-11-20T16:24:24.876Z,-2.38
2022-11-20T16:26:57.049Z,-2.38
2022-11-20T16:29:25.378Z,-2.39
2022-11-20T16:31:53.813Z,-2.39
2022-11-20T16:34:22.232Z,-2.39
2022-11-20T16:36:50.937Z,-2.36
2022-11-20T16:39:23.630Z,-2.34
2022-11-20T16:41:52.969Z,-2.31
2022-11-20T16:44:21.864Z,-2.29
2022-11-20T16:46:50.544Z,-2.28
2022-11-20T16:49:18.977Z,-2.25
2022-11-20T16:51:49.079Z,-2.20
2022-11-20T16:54:20.904Z,-2.15
2022-11-20T16:56:51.970Z,-2.09
2022-11-20T16:59:20.642Z,-2.04
2022-11-20T17:01:49.242Z,-1.99
2022-11-20T17:04:18.953Z,-1.96
2022-11-20T17:06:48.000Z,-1.93
2022-11-20T17:09:16.484Z,-1.88
2022-11-20T17:11:44.930Z,-1.83
2022-11-20T17:14:13.767Z,-1.79
2022-11-20T17:16:43.056Z,-1.76
2022-11-20T17:19:11.907Z,-1.74
2022-11-20T17:21:41.395Z,-1.72
2022-11-20T17:24:12.445Z,-1.69
2022-11-20T17:26:42.701Z,-1.64
2022-11-20T17:29:16.727Z,-1.57
2022-11-20T17:31:46.281Z,-1.53
2022-11-20T17:34:15.814Z,-1.47
2022-11-20T17:36:45.896Z,-1.42
2022-11-20T17:39:15.872Z,-1.33
2022-11-20T17:41:44.401Z,-1.26
2022-11-20T17:44:13.564Z,-1.19
2022-11-20T17:46:41.959Z,-1.10
2022-11-20T17:49:10.399Z,-1.04
2022-11-20T17:51:38.840Z,-0.99
2022-11-20T17:54:10.492Z,-0.93
2022-11-20T17:56:57.511Z,-0.86
2022-11-20T17:59:25.899Z,-0.79
2022-11-20T18:01:55.555Z,-0.71
2022-11-20T18:04:26.382Z,-0.65
2022-11-20T18:06:54.907Z,-0.60
2022-11-20T18:09:23.484Z,-0.54
2022-11-20T18:11:51.970Z,-0.50
2022-11-20T18:14:32.576Z,-0.46
2022-11-20T18:17:05.124Z,-0.43
2022-11-20T18:19:40.252Z,-0.42
2022-11-20T18:22:14.316Z,-0.43
2022-11-20T18:24:45.828Z,-0.45
2022-11-20T18:27:17.776Z,-0.46
2022-11-20T18:29:48.703Z,-0.47
2022-11-20T18:32:17.967Z,-0.48
2022-11-20T18:34:46.513Z,-0.47
2022-11-20T18:37:16.510Z,-0.48
2022-11-20T18:39:45.113Z,-0.50
2022-11-20T18:42:34.014Z,-0.50
2022-11-20T18:45:04.540Z,-0.50
2022-11-20T18:47:37.874Z,-0.50
2022-11-20T18:50:09.186Z,-0.51
2022-11-20T18:52:41.853Z,-0.52
2022-11-20T18:55:12.051Z,-0.53
2022-11-20T18:57:41.106Z,-0.55
2022-11-20T19:00:10.387Z,-0.57
2022-11-20T19:02:42.735Z,-0.61
2022-11-20T19:05:13.727Z,-0.65
2022-11-20T19:07:42.755Z,-0.69
2022-11-20T19:10:11.440Z,-0.74
2022-11-20T19:12:39.862Z,-0.79
2022-11-20T19:15:08.444Z,-0.82
2022-11-20T19:17:36.792Z,-0.85
2022-11-20T19:20:05.729Z,-0.88
2022-11-20T19:22:34.071Z,-0.91
2022-11-20T19:25:02.463Z,-0.96
2022-11-20T19:27:30.736Z,-1.04
2022-11-20T19:30:03.377Z,-1.10
2022-11-20T19:32:32.753Z,-1.18
2022-11-20T19:35:01.363Z,-1.25
2022-11-20T19:37:32.940Z,-1.30
2022-11-20T19:40:04.431Z,-1.36
2022-11-20T19:42:32.928Z,-1.40
2022-11-20T19:45:01.370Z,-1.43
2022-11-20T19:47:46.397Z,-1.47
2022-11-20T19:50:18.310Z,-1.53
2022-11-20T19:52:47.258Z,-1.59
2022-11-20T19:55:18.672Z,-1.64
2022-11-20T19:57:49.200Z,-1.68
2022-11-20T20:00:29.420Z,-1.73
2022-11-20T20:03:01.552Z,-1.83
2022-11-20T20:05:30.410Z,-1.91
2022-11-20T20:07:58.958Z,-1.97
2022-11-20T20:10:31.367Z,-2.01
2022-11-20T20:12:59.678Z,-2.04
2022-11-20T20:15:28.071Z,-2.07
2022-11-20T20:17:59.198Z,-2.07
2022-11-20T20:20:27.605Z,-2.08
2022-11-20T20:22:57.159Z,-2.08
2022-11-20T20:25:25.592Z,-2.07
2022-11-20T20:27:54.075Z,-2.09
2022-11-20T20:30:24.908Z,-2.09
2022-11-20T20:32:56.222Z,-2.07
2022-11-20T20:35:29.471Z,-2.08
2022-11-20T20:37:57.837Z,-2.13
2022-11-20T20:40:26.357Z,-2.18
2022-11-20T20:42:54.778Z,-2.21
2022-11-20T20:45:23.725Z,-2.24
2022-11-20T20:47:52.247Z,-2.29
2022-11-20T20:50:22.713Z,-2.27
2022-11-20T20:52:51.140Z,-2.20
2022-11-20T20:55:19.628Z,-2.11
2022-11-20T20:57:48.284Z,-2.06
2022-11-20T21:00:17.116Z,-2.06
2022-11-20T21:02:46.391Z,-2.05
2022-11-20T21:05:17.256Z,-2.03
2022-11-20T21:08:07.148Z,-2.01
2022-11-20T21:10:35.755Z,-1.99
2022-11-20T21:13:06.135Z,-1.97
2022-11-20T21:15:34.727Z,-1.92
2022-11-20T21:18:03.316Z,-1.87
2022-11-20T21:20:50.247Z,-1.84
2022-11-20T21:23:19.696Z,-1.78
2022-11-20T21:25:48.195Z,-1.75
2022-11-20T21:28:18.329Z,-1.71
2022-11-20T21:30:47.561Z,-1.68
2022-11-20T21:33:16.331Z,-1.67
2022-11-20T21:35:44.944Z,-1.66
2022-11-20T21:38:13.305Z,-1.63
2022-11-20T21:40:42.538Z,-1.62
2022-11-20T21:43:10.859Z,-1.62
2022-11-20T21:45:39.279Z,-1.62
2022-11-20T21:48:07.773Z,-1.64
2022-11-20T21:50:36.161Z,-1.64
2022-11-20T21:53:04.532Z,-1.65
2022-11-20T21:55:32.870Z,-1.66
2022-11-20T21:58:01.241Z,-1.67
2022-11-20T22:00:29.535Z,-1.68
2022-11-20T22:02:58.208Z,-1.70
2022-11-20T22:05:26.578Z,-1.73
2022-11-20T22:07:54.953Z,-1.74
2022-11-20T22:10:23.416Z,-1.73
2022-11-20T22:12:53.232Z,-1.72
2022-11-20T22:15:53.231Z,-1.71
2022-11-20T22:18:13.220Z,-1.70
2022-11-20T22:20:42.118Z,-1.70
2022-11-20T22:23:10.433Z,-1.68
2022-11-20T22:25:38.785Z,-1.67
2022-11-20T22:28:07.544Z,-1.66
2022-11-20T22:30:35.888Z,-1.64
2022-11-20T22:33:06.712Z,-1.61
2022-11-20T22:35:38.832Z,-1.59
2022-11-20T22:38:07.832Z,-1.58
2022-11-20T22:40:36.199Z,-1.57
2022-11-20T22:43:04.589Z,-1.55
2022-11-20T22:45:32.951Z,-1.56
2022-11-20T22:48:01.306Z,-1.54
2022-11-20T22:50:29.703Z,-1.52
2022-11-20T22:52:58.040Z,-1.50
2022-11-20T22:55:26.387Z,-1.49
2022-11-20T22:57:54.789Z,-1.47
2022-11-20T23:00:23.127Z,-1.47
2022-11-20T23:02:51.429Z,-1.48
2022-11-20T23:05:19.807Z,-1.48
2022-11-20T23:07:48.209Z,-1.48
2022-11-20T23:10:16.686Z,-1.48
2022-11-20T23:12:45.146Z,-1.50
2022-11-20T23:15:13.851Z,-1.49
2022-11-20T23:17:42.838Z,-1.48
2022-11-20T23:20:11.395Z,-1.48
2022-11-20T23:22:39.776Z,-1.47
2022-11-20T23:25:08.872Z,-1.47
2022-11-20T23:27:37.296Z,-1.48
2022-11-20T23:30:06.108Z,-1.50
2022-11-20T23:32:34.485Z,-1.53
2022-11-20T23:35:02.950Z,-1.56
2022-11-20T23:37:32.313Z,-1.58
2022-11-20T23:40:00.598Z,-1.60
2022-11-20T23:42:29.024Z,-1.60
2022-11-20T23:44:57.396Z,-1.60
2022-11-20T23:47:25.696Z,-1.63
2022-11-20T23:49:54.103Z,-1.65
2022-11-20T23:52:22.466Z,-1.68
2022-11-20T23:54:50.796Z,-1.69
2022-11-20T23:57:19.205Z,-1.71
2022-11-20T23:59:52.937Z,-1.72
